Time;durP1;ratioP1;P1;durP2;ratioP2;P2;SDS_P1;SDS_P2;PMS_P1;PMS_P2;Temp;Humidity;BMP_temperature;BMP_pressure;BME280_temperature;BME280_humidity;BME280_pressure;Samples;Min_cycle;Max_cycle;Signal;HPM_P1;HPM_P2
2020/09/19 00:00:43;;;;;;;4.6;3.1;;;;;;;9.32;64.70215;95623.16;;;;
2020/09/19 00:01:44;;;;;;;4.6;3.1;;;;;;;9.32;64.70215;95623.16;;;;
2020/09/19 00:02:45;;;;;;;4.6;3.1;;;;;;;9.32;64.70215;95623.16;;;;
2020/09/19 00:03:46;;;;;;;5.05;2.65;;;;;;;9.23;64.89258;95609.66;;;;
2020/09/19 00:04:46;;;;;;;5.05;2.65;;;;;;;9.23;64.89258;95609.66;;;;
2020/09/19 00:05:47;;;;;;;5.05;2.65;;;;;;;9.23;64.89258;95609.66;;;;
2020/09/19 00:06:47;;;;;;;5.05;2.65;;;;;;;9.23;64.89258;95609.66;;;;
2020/09/19 00:07:48;;;;;;;5.05;2.65;;;;;;;9.23;64.89258;95609.66;;;;
2020/09/19 00:08:48;;;;;;;5.05;2.65;;;;;;;9.23;64.89258;95609.66;;;;
2020/09/19 00:09:49;;;;;;;5.05;2.65;;;;;;;9.23;64.89258;95609.66;;;;
2020/09/19 00:10:50;;;;;;;5.05;2.65;;;;;;;9.23;64.89258;95609.66;;;;
2020/09/19 00:11:50;;;;;;;5.05;2.65;;;;;;;9.23;64.89258;95609.66;;;;
2020/09/19 00:12:51;;;;;;;5.05;2.65;;;;;;;9.23;64.89258;95609.66;;;;
2020/09/19 00:13:51;;;;;;;5.05;2.65;;;;;;;9.23;64.89258;95609.66;;;;
2020/09/19 00:14:52;;;;;;;4.149999;2.65;;;;;;;9.08;65.18945;95603.78;;;;
2020/09/19 00:15:52;;;;;;;4.149999;2.65;;;;;;;9.08;65.18945;95603.78;;;;
2020/09/19 00:16:53;;;;;;;4.149999;2.65;;;;;;;9.08;65.18945;95603.78;;;;
2020/09/19 00:17:53;;;;;;;4.149999;2.65;;;;;;;9.08;65.18945;95603.78;;;;
2020/09/19 00:18:54;;;;;;;4.149999;2.65;;;;;;;9.08;65.18945;95603.78;;;;
2020/09/19 00:19:54;;;;;;;4.149999;2.65;;;;;;;9.08;65.18945;95603.78;;;;
2020/09/19 00:20:55;;;;;;;4.149999;2.65;;;;;;;9.08;65.18945;95603.78;;;;
2020/09/19 00:21:59;;;;;;;4.149999;2.65;;;;;;;9.08;65.18945;95603.78;;;;
2020/09/19 00:22:59;;;;;;;4.149999;2.65;;;;;;;9.08;65.18945;95603.78;;;;
2020/09/19 00:24:00;;;;;;;4.149999;2.65;;;;;;;9.08;65.18945;95603.78;;;;
2020/09/19 00:25:00;;;;;;;4.149999;2.65;;;;;;;9.08;65.18945;95603.78;;;;
2020/09/19 00:26:01;;;;;;;3.7;2.6;;;;;;;8.91;65.5498;95594.48;;;;
2020/09/19 00:27:02;;;;;;;3.7;2.6;;;;;;;8.91;65.5498;95594.48;;;;
2020/09/19 00:28:02;;;;;;;3.7;2.6;;;;;;;8.91;65.5498;95594.48;;;;
2020/09/19 00:29:03;;;;;;;3.7;2.6;;;;;;;8.91;65.5498;95594.48;;;;
2020/09/19 00:30:03;;;;;;;3.7;2.6;;;;;;;8.91;65.5498;95594.48;;;;
2020/09/19 00:31:04;;;;;;;3.7;2.6;;;;;;;8.91;65.5498;95594.48;;;;
2020/09/19 00:32:04;;;;;;;3.7;2.6;;;;;;;8.91;65.5498;95594.48;;;;
2020/09/19 00:33:05;;;;;;;3.7;2.6;;;;;;;8.91;65.5498;95594.48;;;;
2020/09/19 00:34:05;;;;;;;3.7;2.6;;;;;;;8.91;65.5498;95594.48;;;;
2020/09/19 00:35:06;;;;;;;3.7;2.6;;;;;;;8.91;65.5498;95594.48;;;;
2020/09/19 00:36:06;;;;;;;4.599999;3.2;;;;;;;8.77;65.93359;95590.33;;;;
2020/09/19 00:37:07;;;;;;;4.599999;3.2;;;;;;;8.77;65.93359;95590.33;;;;
2020/09/19 00:38:07;;;;;;;4.599999;3.2;;;;;;;8.77;65.93359;95590.33;;;;
2020/09/19 00:39:08;;;;;;;4.599999;3.2;;;;;;;8.77;65.93359;95590.33;;;;
2020/09/19 00:40:08;;;;;;;4.599999;3.2;;;;;;;8.77;65.93359;95590.33;;;;
2020/09/19 00:41:09;;;;;;;4.599999;3.2;;;;;;;8.77;65.93359;95590.33;;;;
2020/09/19 00:42:09;;;;;;;4.599999;3.2;;;;;;;8.77;65.93359;95590.33;;;;
2020/09/19 00:43:10;;;;;;;4.599999;3.2;;;;;;;8.77;65.93359;95590.33;;;;
2020/09/19 00:44:10;;;;;;;4.599999;3.2;;;;;;;8.77;65.93359;95590.33;;;;
2020/09/19 00:45:11;;;;;;;4.599999;3.2;;;;;;;8.77;65.93359;95590.33;;;;
2020/09/19 00:46:11;;;;;;;4.599999;3.2;;;;;;;8.77;65.93359;95590.33;;;;
2020/09/19 00:47:12;;;;;;;3.65;2.85;;;;;;;8.75;66.10156;95600.48;;;;
2020/09/19 00:48:12;;;;;;;3.65;2.85;;;;;;;8.75;66.10156;95600.48;;;;
2020/09/19 00:49:14;;;;;;;3.65;2.85;;;;;;;8.75;66.10156;95600.48;;;;
2020/09/19 00:50:15;;;;;;;3.65;2.85;;;;;;;8.75;66.10156;95600.48;;;;
2020/09/19 00:51:15;;;;;;;3.65;2.85;;;;;;;8.75;66.10156;95600.48;;;;
2020/09/19 00:52:23;;;;;;;3.65;2.85;;;;;;;8.75;66.10156;95600.48;;;;
2020/09/19 00:53:29;;;;;;;3.65;2.85;;;;;;;8.75;66.10156;95600.48;;;;
2020/09/19 00:54:36;;;;;;;3.65;2.85;;;;;;;8.75;66.10156;95600.48;;;;
2020/09/19 00:55:48;;;;;;;3.65;2.85;;;;;;;8.75;66.10156;95600.48;;;;
2020/09/19 00:56:59;;;;;;;3.65;2.85;;;;;;;8.75;66.10156;95600.48;;;;
2020/09/19 00:58:18;;;;;;;4.25;2.85;;;;;;;8.62;66.45703;95577.7;;;;
2020/09/19 00:59:30;;;;;;;4.25;2.85;;;;;;;8.62;66.45703;95577.7;;;;
2020/09/19 01:00:41;;;;;;;4.25;2.85;;;;;;;8.62;66.45703;95577.7;;;;
2020/09/19 01:01:47;;;;;;;4.25;2.85;;;;;;;8.62;66.45703;95577.7;;;;
2020/09/19 01:02:54;;;;;;;4.25;2.85;;;;;;;8.62;66.45703;95577.7;;;;
2020/09/19 01:04:02;;;;;;;4.25;2.85;;;;;;;8.62;66.45703;95577.7;;;;
2020/09/19 01:05:03;;;;;;;4.25;2.85;;;;;;;8.62;66.45703;95577.7;;;;
2020/09/19 01:06:04;;;;;;;4.25;2.85;;;;;;;8.62;66.45703;95577.7;;;;
2020/09/19 01:07:04;;;;;;;4.25;2.85;;;;;;;8.62;66.45703;95577.7;;;;
2020/09/19 01:08:05;;;;;;;6.25;3;;;;;;;8.49;66.79883;95577.66;;;;
2020/09/19 01:09:06;;;;;;;6.25;3;;;;;;;8.49;66.79883;95577.66;;;;
2020/09/19 01:10:07;;;;;;;6.25;3;;;;;;;8.49;66.79883;95577.66;;;;
2020/09/19 01:11:09;;;;;;;6.25;3;;;;;;;8.49;66.79883;95577.66;;;;
2020/09/19 01:12:15;;;;;;;6.25;3;;;;;;;8.49;66.79883;95577.66;;;;
2020/09/19 01:13:23;;;;;;;6.25;3;;;;;;;8.49;66.79883;95577.66;;;;
2020/09/19 01:14:31;;;;;;;6.25;3;;;;;;;8.49;66.79883;95577.66;;;;
2020/09/19 01:15:34;;;;;;;6.25;3;;;;;;;8.49;66.79883;95577.66;;;;
2020/09/19 01:16:34;;;;;;;6.25;3;;;;;;;8.49;66.79883;95577.66;;;;
2020/09/19 01:17:49;;;;;;;6.25;3;;;;;;;8.49;66.79883;95577.66;;;;
2020/09/19 01:19:04;;;;;;;3.9;3.25;;;;;;;8.49;66.94824;95554.91;;;;
2020/09/19 01:24:32;;;;;;;3.9;3.25;;;;;;;8.49;66.94824;95554.91;;;;
2020/09/19 01:25:36;;;;;;;3.9;3.25;;;;;;;8.49;66.94824;95554.91;;;;
2020/09/19 01:26:49;;;;;;;3.9;3.25;;;;;;;8.49;66.94824;95554.91;;;;
2020/09/19 01:28:06;;;;;;;3.9;3.25;;;;;;;8.49;66.94824;95554.91;;;;
2020/09/19 01:29:12;;;;;;;4.35;2.900001;;;;;;;8.37;67.24023;95542.22;;;;
2020/09/19 01:30:21;;;;;;;4.35;2.900001;;;;;;;8.37;67.24023;95542.22;;;;
2020/09/19 01:31:26;;;;;;;4.35;2.900001;;;;;;;8.37;67.24023;95542.22;;;;
2020/09/19 01:32:27;;;;;;;4.35;2.900001;;;;;;;8.37;67.24023;95542.22;;;;
2020/09/19 01:33:32;;;;;;;4.35;2.900001;;;;;;;8.37;67.24023;95542.22;;;;
2020/09/19 01:34:36;;;;;;;4.35;2.900001;;;;;;;8.37;67.24023;95542.22;;;;
2020/09/19 01:35:37;;;;;;;4.35;2.900001;;;;;;;8.37;67.24023;95542.22;;;;
2020/09/19 01:36:38;;;;;;;4.35;2.900001;;;;;;;8.37;67.24023;95542.22;;;;
2020/09/19 01:37:41;;;;;;;4.35;2.900001;;;;;;;8.37;67.24023;95542.22;;;;
2020/09/19 01:38:44;;;;;;;4.35;2.900001;;;;;;;8.37;67.24023;95542.22;;;;
2020/09/19 01:39:48;;;;;;;4;3;;;;;;;8.25;67.62695;95538.07;;;;
2020/09/19 01:40:51;;;;;;;4;3;;;;;;;8.25;67.62695;95538.07;;;;
2020/09/19 01:41:52;;;;;;;4;3;;;;;;;8.25;67.62695;95538.07;;;;
2020/09/19 01:42:55;;;;;;;4;3;;;;;;;8.25;67.62695;95538.07;;;;
2020/09/19 01:43:55;;;;;;;4;3;;;;;;;8.25;67.62695;95538.07;;;;
2020/09/19 01:44:56;;;;;;;4;3;;;;;;;8.25;67.62695;95538.07;;;;
2020/09/19 01:45:57;;;;;;;4;3;;;;;;;8.25;67.62695;95538.07;;;;
2020/09/19 01:46:59;;;;;;;4;3;;;;;;;8.25;67.62695;95538.07;;;;
2020/09/19 01:48:00;;;;;;;4;3;;;;;;;8.25;67.62695;95538.07;;;;
2020/09/19 01:49:00;;;;;;;4;3;;;;;;;8.25;67.62695;95538.07;;;;
2020/09/19 01:50:01;;;;;;;4;3;;;;;;;8.25;67.62695;95538.07;;;;
2020/09/19 01:51:01;;;;;;;3.6;2.9;;;;;;;8.19;67.83105;95531.23;;;;
2020/09/19 01:52:07;;;;;;;3.6;2.9;;;;;;;8.19;67.83105;95531.23;;;;
2020/09/19 01:53:12;;;;;;;3.6;2.9;;;;;;;8.19;67.83105;95531.23;;;;
2020/09/19 01:54:18;;;;;;;3.6;2.9;;;;;;;8.19;67.83105;95531.23;;;;
2020/09/19 01:55:20;;;;;;;3.6;2.9;;;;;;;8.19;67.83105;95531.23;;;;
2020/09/19 01:56:27;;;;;;;3.6;2.9;;;;;;;8.19;67.83105;95531.23;;;;
2020/09/19 01:57:31;;;;;;;3.6;2.9;;;;;;;8.19;67.83105;95531.23;;;;
2020/09/19 01:58:32;;;;;;;3.6;2.9;;;;;;;8.19;67.83105;95531.23;;;;
2020/09/19 01:59:34;;;;;;;3.6;2.9;;;;;;;8.19;67.83105;95531.23;;;;
2020/09/19 02:00:35;;;;;;;3.6;2.9;;;;;;;8.19;67.83105;95531.23;;;;
2020/09/19 02:01:35;;;;;;;3.8;3.05;;;;;;;8.08;68.11035;95522.63;;;;
2020/09/19 02:02:36;;;;;;;3.8;3.05;;;;;;;8.08;68.11035;95522.63;;;;
2020/09/19 02:03:36;;;;;;;3.8;3.05;;;;;;;8.08;68.11035;95522.63;;;;
2020/09/19 02:04:37;;;;;;;3.8;3.05;;;;;;;8.08;68.11035;95522.63;;;;
2020/09/19 02:05:37;;;;;;;3.8;3.05;;;;;;;8.08;68.11035;95522.63;;;;
2020/09/19 02:06:38;;;;;;;3.8;3.05;;;;;;;8.08;68.11035;95522.63;;;;
2020/09/19 02:07:38;;;;;;;3.8;3.05;;;;;;;8.08;68.11035;95522.63;;;;
2020/09/19 02:08:39;;;;;;;3.8;3.05;;;;;;;8.08;68.11035;95522.63;;;;
2020/09/19 02:09:39;;;;;;;3.8;3.05;;;;;;;8.08;68.11035;95522.63;;;;
2020/09/19 02:10:40;;;;;;;3.8;3.05;;;;;;;8.08;68.11035;95522.63;;;;
2020/09/19 02:11:40;;;;;;;3.8;3.05;;;;;;;8.08;68.11035;95522.63;;;;
2020/09/19 02:12:41;;;;;;;5;3.15;;;;;;;7.95;68.48535;95509.66;;;;
2020/09/19 02:13:41;;;;;;;5;3.15;;;;;;;7.95;68.48535;95509.66;;;;
2020/09/19 02:14:42;;;;;;;5;3.15;;;;;;;7.95;68.48535;95509.66;;;;
2020/09/19 02:15:42;;;;;;;5;3.15;;;;;;;7.95;68.48535;95509.66;;;;
2020/09/19 02:16:43;;;;;;;5;3.15;;;;;;;7.95;68.48535;95509.66;;;;
2020/09/19 02:17:43;;;;;;;5;3.15;;;;;;;7.95;68.48535;95509.66;;;;
2020/09/19 02:18:44;;;;;;;5;3.15;;;;;;;7.95;68.48535;95509.66;;;;
2020/09/19 02:19:44;;;;;;;5;3.15;;;;;;;7.95;68.48535;95509.66;;;;
2020/09/19 02:20:45;;;;;;;5;3.15;;;;;;;7.95;68.48535;95509.66;;;;
2020/09/19 02:21:45;;;;;;;5;3.15;;;;;;;7.95;68.48535;95509.66;;;;
2020/09/19 02:22:46;;;;;;;5.3;3.1;;;;;;;7.86;68.76953;95505.55;;;;
2020/09/19 02:23:46;;;;;;;5.3;3.1;;;;;;;7.86;68.76953;95505.55;;;;
2020/09/19 02:24:47;;;;;;;5.3;3.1;;;;;;;7.86;68.76953;95505.55;;;;
2020/09/19 02:25:47;;;;;;;5.3;3.1;;;;;;;7.86;68.76953;95505.55;;;;
2020/09/19 02:26:48;;;;;;;5.3;3.1;;;;;;;7.86;68.76953;95505.55;;;;
2020/09/19 02:27:48;;;;;;;5.3;3.1;;;;;;;7.86;68.76953;95505.55;;;;
2020/09/19 02:28:49;;;;;;;5.3;3.1;;;;;;;7.86;68.76953;95505.55;;;;
2020/09/19 02:29:50;;;;;;;5.3;3.1;;;;;;;7.86;68.76953;95505.55;;;;
2020/09/19 02:30:50;;;;;;;5.3;3.1;;;;;;;7.86;68.76953;95505.55;;;;
2020/09/19 02:31:51;;;;;;;5.3;3.1;;;;;;;7.86;68.76953;95505.55;;;;
2020/09/19 02:32:52;;;;;;;5.3;3.1;;;;;;;7.86;68.76953;95505.55;;;;
2020/09/19 02:33:52;;;;;;;3.45;3.15;;;;;;;7.84;68.93652;95499.56;;;;
2020/09/19 02:34:53;;;;;;;3.45;3.15;;;;;;;7.84;68.93652;95499.56;;;;
2020/09/19 02:35:53;;;;;;;3.45;3.15;;;;;;;7.84;68.93652;95499.56;;;;
2020/09/19 02:36:54;;;;;;;3.45;3.15;;;;;;;7.84;68.93652;95499.56;;;;
2020/09/19 02:37:54;;;;;;;3.45;3.15;;;;;;;7.84;68.93652;95499.56;;;;
2020/09/19 02:38:55;;;;;;;3.45;3.15;;;;;;;7.84;68.93652;95499.56;;;;
2020/09/19 02:39:55;;;;;;;3.45;3.15;;;;;;;7.84;68.93652;95499.56;;;;
2020/09/19 02:40:56;;;;;;;3.45;3.15;;;;;;;7.84;68.93652;95499.56;;;;
2020/09/19 02:41:56;;;;;;;3.45;3.15;;;;;;;7.84;68.93652;95499.56;;;;
2020/09/19 02:42:56;;;;;;;3.45;3.15;;;;;;;7.84;68.93652;95499.56;;;;
2020/09/19 02:43:57;;;;;;;5.2;3.55;;;;;;;7.72;69.20605;95501.15;;;;
2020/09/19 02:44:57;;;;;;;5.2;3.55;;;;;;;7.72;69.20605;95501.15;;;;
2020/09/19 02:45:58;;;;;;;5.2;3.55;;;;;;;7.72;69.20605;95501.15;;;;
2020/09/19 02:46:58;;;;;;;5.2;3.55;;;;;;;7.72;69.20605;95501.15;;;;
2020/09/19 02:47:59;;;;;;;5.2;3.55;;;;;;;7.72;69.20605;95501.15;;;;
2020/09/19 02:48:59;;;;;;;5.2;3.55;;;;;;;7.72;69.20605;95501.15;;;;
2020/09/19 02:50:00;;;;;;;5.2;3.55;;;;;;;7.72;69.20605;95501.15;;;;
2020/09/19 02:51:00;;;;;;;5.2;3.55;;;;;;;7.72;69.20605;95501.15;;;;
2020/09/19 02:52:01;;;;;;;5.2;3.55;;;;;;;7.72;69.20605;95501.15;;;;
2020/09/19 02:53:01;;;;;;;5.2;3.55;;;;;;;7.72;69.20605;95501.15;;;;
2020/09/19 02:54:02;;;;;;;5.2;3.55;;;;;;;7.72;69.20605;95501.15;;;;
2020/09/19 02:55:02;;;;;;;5.4;3.35;;;;;;;7.63;69.56348;95493.95;;;;
2020/09/19 02:56:03;;;;;;;5.4;3.35;;;;;;;7.63;69.56348;95493.95;;;;
2020/09/19 02:57:03;;;;;;;5.4;3.35;;;;;;;7.63;69.56348;95493.95;;;;
2020/09/19 02:58:04;;;;;;;5.4;3.35;;;;;;;7.63;69.56348;95493.95;;;;
2020/09/19 02:59:05;;;;;;;5.4;3.35;;;;;;;7.63;69.56348;95493.95;;;;
2020/09/19 03:00:05;;;;;;;5.4;3.35;;;;;;;7.63;69.56348;95493.95;;;;
2020/09/19 03:01:06;;;;;;;5.4;3.35;;;;;;;7.63;69.56348;95493.95;;;;
2020/09/19 03:02:06;;;;;;;5.4;3.35;;;;;;;7.63;69.56348;95493.95;;;;
2020/09/19 03:03:07;;;;;;;5.4;3.35;;;;;;;7.63;69.56348;95493.95;;;;
2020/09/19 03:04:07;;;;;;;5.4;3.35;;;;;;;7.63;69.56348;95493.95;;;;
2020/09/19 03:05:08;;;;;;;4.15;3.25;;;;;;;7.63;69.65039;95470.19;;;;
2020/09/19 03:06:08;;;;;;;4.15;3.25;;;;;;;7.63;69.65039;95470.19;;;;
2020/09/19 03:07:09;;;;;;;4.15;3.25;;;;;;;7.63;69.65039;95470.19;;;;
2020/09/19 03:08:09;;;;;;;4.15;3.25;;;;;;;7.63;69.65039;95470.19;;;;
2020/09/19 03:09:10;;;;;;;4.15;3.25;;;;;;;7.63;69.65039;95470.19;;;;
2020/09/19 03:10:10;;;;;;;4.15;3.25;;;;;;;7.63;69.65039;95470.19;;;;
2020/09/19 03:11:11;;;;;;;4.15;3.25;;;;;;;7.63;69.65039;95470.19;;;;
2020/09/19 03:12:11;;;;;;;4.15;3.25;;;;;;;7.63;69.65039;95470.19;;;;
2020/09/19 03:13:12;;;;;;;4.15;3.25;;;;;;;7.63;69.65039;95470.19;;;;
2020/09/19 03:14:12;;;;;;;4.15;3.25;;;;;;;7.63;69.65039;95470.19;;;;
2020/09/19 03:15:13;;;;;;;4.15;3.25;;;;;;;7.63;69.65039;95470.19;;;;
2020/09/19 03:16:13;;;;;;;6.899999;3.55;;;;;;;7.61;69.83691;95483.54;;;;
2020/09/19 03:17:14;;;;;;;6.899999;3.55;;;;;;;7.61;69.83691;95483.54;;;;
2020/09/19 03:18:14;;;;;;;6.899999;3.55;;;;;;;7.61;69.83691;95483.54;;;;
2020/09/19 03:19:14;;;;;;;6.899999;3.55;;;;;;;7.61;69.83691;95483.54;;;;
2020/09/19 03:20:15;;;;;;;6.899999;3.55;;;;;;;7.61;69.83691;95483.54;;;;
2020/09/19 03:21:16;;;;;;;6.899999;3.55;;;;;;;7.61;69.83691;95483.54;;;;
2020/09/19 03:22:17;;;;;;;6.899999;3.55;;;;;;;7.61;69.83691;95483.54;;;;
2020/09/19 03:23:18;;;;;;;6.899999;3.55;;;;;;;7.61;69.83691;95483.54;;;;
2020/09/19 03:24:18;;;;;;;6.899999;3.55;;;;;;;7.61;69.83691;95483.54;;;;
2020/09/19 03:25:19;;;;;;;6.899999;3.55;;;;;;;7.61;69.83691;95483.54;;;;
2020/09/19 03:26:19;;;;;;;6.899999;3.55;;;;;;;7.61;69.83691;95483.54;;;;
2020/09/19 03:27:20;;;;;;;4.399999;3.2;;;;;;;7.54;70.11328;95476.42;;;;
2020/09/19 03:28:20;;;;;;;4.399999;3.2;;;;;;;7.54;70.11328;95476.42;;;;
2020/09/19 03:29:21;;;;;;;4.399999;3.2;;;;;;;7.54;70.11328;95476.42;;;;
2020/09/19 03:30:21;;;;;;;4.399999;3.2;;;;;;;7.54;70.11328;95476.42;;;;
2020/09/19 03:31:22;;;;;;;4.399999;3.2;;;;;;;7.54;70.11328;95476.42;;;;
2020/09/19 03:32:22;;;;;;;4.399999;3.2;;;;;;;7.54;70.11328;95476.42;;;;
2020/09/19 03:33:23;;;;;;;4.399999;3.2;;;;;;;7.54;70.11328;95476.42;;;;
2020/09/19 03:34:23;;;;;;;4.399999;3.2;;;;;;;7.54;70.11328;95476.42;;;;
2020/09/19 03:35:24;;;;;;;4.399999;3.2;;;;;;;7.54;70.11328;95476.42;;;;
2020/09/19 03:36:25;;;;;;;4.399999;3.2;;;;;;;7.54;70.11328;95476.42;;;;
2020/09/19 03:37:25;;;;;;;4.4;3.1;;;;;;;7.51;70.33105;95471.48;;;;
2020/09/19 03:38:26;;;;;;;4.4;3.1;;;;;;;7.51;70.33105;95471.48;;;;
2020/09/19 03:39:27;;;;;;;4.4;3.1;;;;;;;7.51;70.33105;95471.48;;;;
2020/09/19 03:40:27;;;;;;;4.4;3.1;;;;;;;7.51;70.33105;95471.48;;;;
2020/09/19 03:41:28;;;;;;;4.4;3.1;;;;;;;7.51;70.33105;95471.48;;;;
2020/09/19 03:42:28;;;;;;;4.4;3.1;;;;;;;7.51;70.33105;95471.48;;;;
2020/09/19 03:43:32;;;;;;;4.4;3.1;;;;;;;7.51;70.33105;95471.48;;;;
2020/09/19 03:44:33;;;;;;;4.4;3.1;;;;;;;7.51;70.33105;95471.48;;;;
2020/09/19 03:45:33;;;;;;;4.4;3.1;;;;;;;7.51;70.33105;95471.48;;;;
2020/09/19 03:46:36;;;;;;;4.4;3.1;;;;;;;7.51;70.33105;95471.48;;;;
2020/09/19 03:47:37;;;;;;;4.4;3.1;;;;;;;7.51;70.33105;95471.48;;;;
2020/09/19 03:48:43;;;;;;;5;3.3;;;;;;;7.42;70.50684;95458.91;;;;
2020/09/19 03:49:45;;;;;;;5;3.3;;;;;;;7.42;70.50684;95458.91;;;;
2020/09/19 03:50:47;;;;;;;5;3.3;;;;;;;7.42;70.50684;95458.91;;;;
2020/09/19 03:51:48;;;;;;;5;3.3;;;;;;;7.42;70.50684;95458.91;;;;
2020/09/19 03:52:48;;;;;;;5;3.3;;;;;;;7.42;70.50684;95458.91;;;;
2020/09/19 03:53:49;;;;;;;5;3.3;;;;;;;7.42;70.50684;95458.91;;;;
2020/09/19 03:54:50;;;;;;;5;3.3;;;;;;;7.42;70.50684;95458.91;;;;
2020/09/19 03:55:50;;;;;;;5;3.3;;;;;;;7.42;70.50684;95458.91;;;;
2020/09/19 03:56:51;;;;;;;5;3.3;;;;;;;7.42;70.50684;95458.91;;;;
2020/09/19 03:58:05;;;;;;;5;3.3;;;;;;;7.42;70.50684;95458.91;;;;
2020/09/19 03:59:06;;;;;;;5.3;3.3;;;;;;;7.4;70.68457;95455.59;;;;
2020/09/19 04:00:19;;;;;;;5.3;3.3;;;;;;;7.4;70.68457;95455.59;;;;
2020/09/19 04:01:19;;;;;;;5.3;3.3;;;;;;;7.4;70.68457;95455.59;;;;
2020/09/19 04:02:28;;;;;;;5.3;3.3;;;;;;;7.4;70.68457;95455.59;;;;
2020/09/19 04:03:29;;;;;;;5.3;3.3;;;;;;;7.4;70.68457;95455.59;;;;
2020/09/19 04:04:29;;;;;;;5.3;3.3;;;;;;;7.4;70.68457;95455.59;;;;
2020/09/19 04:05:30;;;;;;;5.3;3.3;;;;;;;7.4;70.68457;95455.59;;;;
2020/09/19 04:06:30;;;;;;;5.3;3.3;;;;;;;7.4;70.68457;95455.59;;;;
2020/09/19 04:07:37;;;;;;;5.3;3.3;;;;;;;7.4;70.68457;95455.59;;;;
2020/09/19 04:08:38;;;;;;;5.3;3.3;;;;;;;7.4;70.68457;95455.59;;;;
2020/09/19 04:09:38;;;;;;;5.200001;3.65;;;;;;;7.33;70.91895;95452.53;;;;
2020/09/19 04:10:39;;;;;;;5.200001;3.65;;;;;;;7.33;70.91895;95452.53;;;;
2020/09/19 04:11:40;;;;;;;5.200001;3.65;;;;;;;7.33;70.91895;95452.53;;;;
2020/09/19 04:12:44;;;;;;;5.200001;3.65;;;;;;;7.33;70.91895;95452.53;;;;
2020/09/19 04:13:45;;;;;;;5.200001;3.65;;;;;;;7.33;70.91895;95452.53;;;;
2020/09/19 04:15:02;;;;;;;5.200001;3.65;;;;;;;7.33;70.91895;95452.53;;;;
2020/09/19 04:16:03;;;;;;;5.200001;3.65;;;;;;;7.33;70.91895;95452.53;;;;
2020/09/19 04:17:11;;;;;;;5.200001;3.65;;;;;;;7.33;70.91895;95452.53;;;;
2020/09/19 04:18:18;;;;;;;5.200001;3.65;;;;;;;7.33;70.91895;95452.53;;;;
2020/09/19 04:19:19;;;;;;;5.200001;3.65;;;;;;;7.33;70.91895;95452.53;;;;
2020/09/19 04:20:23;;;;;;;5.699999;3.4;;;;;;;7.24;71.30664;95452.04;;;;
2020/09/19 04:21:23;;;;;;;5.699999;3.4;;;;;;;7.24;71.30664;95452.04;;;;
2020/09/19 04:22:24;;;;;;;5.699999;3.4;;;;;;;7.24;71.30664;95452.04;;;;
2020/09/19 04:23:25;;;;;;;5.699999;3.4;;;;;;;7.24;71.30664;95452.04;;;;
2020/09/19 04:24:29;;;;;;;5.699999;3.4;;;;;;;7.24;71.30664;95452.04;;;;
2020/09/19 04:25:29;;;;;;;5.699999;3.4;;;;;;;7.24;71.30664;95452.04;;;;
2020/09/19 04:26:31;;;;;;;5.699999;3.4;;;;;;;7.24;71.30664;95452.04;;;;
2020/09/19 04:27:37;;;;;;;5.699999;3.4;;;;;;;7.24;71.30664;95452.04;;;;
2020/09/19 04:28:38;;;;;;;5.699999;3.4;;;;;;;7.24;71.30664;95452.04;;;;
2020/09/19 04:29:45;;;;;;;5.699999;3.4;;;;;;;7.24;71.30664;95452.04;;;;
2020/09/19 04:30:46;;;;;;;4.5;3.1;;;;;;;7.19;71.4375;95454.96;;;;
2020/09/19 04:31:47;;;;;;;4.5;3.1;;;;;;;7.19;71.4375;95454.96;;;;
2020/09/19 04:32:52;;;;;;;4.5;3.1;;;;;;;7.19;71.4375;95454.96;;;;
2020/09/19 04:33:57;;;;;;;4.5;3.1;;;;;;;7.19;71.4375;95454.96;;;;
2020/09/19 04:34:58;;;;;;;4.5;3.1;;;;;;;7.19;71.4375;95454.96;;;;
2020/09/19 04:35:59;;;;;;;4.5;3.1;;;;;;;7.19;71.4375;95454.96;;;;
2020/09/19 04:37:00;;;;;;;4.5;3.1;;;;;;;7.19;71.4375;95454.96;;;;
2020/09/19 04:38:12;;;;;;;4.5;3.1;;;;;;;7.19;71.4375;95454.96;;;;
2020/09/19 04:39:14;;;;;;;4.5;3.1;;;;;;;7.19;71.4375;95454.96;;;;
2020/09/19 04:40:17;;;;;;;4.5;3.1;;;;;;;7.19;71.4375;95454.96;;;;
2020/09/19 04:41:22;;;;;;;4.5;3.5;;;;;;;7.08;71.60059;95455.1;;;;
2020/09/19 04:42:22;;;;;;;4.5;3.5;;;;;;;7.08;71.60059;95455.1;;;;
2020/09/19 04:43:24;;;;;;;4.5;3.5;;;;;;;7.08;71.60059;95455.1;;;;
2020/09/19 04:44:25;;;;;;;4.5;3.5;;;;;;;7.08;71.60059;95455.1;;;;
2020/09/19 04:45:26;;;;;;;4.5;3.5;;;;;;;7.08;71.60059;95455.1;;;;
2020/09/19 04:46:27;;;;;;;4.5;3.5;;;;;;;7.08;71.60059;95455.1;;;;
2020/09/19 04:47:28;;;;;;;4.5;3.5;;;;;;;7.08;71.60059;95455.1;;;;
2020/09/19 04:48:28;;;;;;;4.5;3.5;;;;;;;7.08;71.60059;95455.1;;;;
2020/09/19 04:49:29;;;;;;;4.5;3.5;;;;;;;7.08;71.60059;95455.1;;;;
2020/09/19 04:50:30;;;;;;;4.5;3.5;;;;;;;7.08;71.60059;95455.1;;;;
2020/09/19 04:51:32;;;;;;;4.5;3.5;;;;;;;7.08;71.60059;95455.1;;;;
2020/09/19 04:52:33;;;;;;;4.65;3.85;;;;;;;6.98;72.01953;95438.16;;;;
2020/09/19 04:53:34;;;;;;;4.65;3.85;;;;;;;6.98;72.01953;95438.16;;;;
2020/09/19 04:54:34;;;;;;;4.65;3.85;;;;;;;6.98;72.01953;95438.16;;;;
2020/09/19 04:55:35;;;;;;;4.65;3.85;;;;;;;6.98;72.01953;95438.16;;;;
2020/09/19 04:56:36;;;;;;;4.65;3.85;;;;;;;6.98;72.01953;95438.16;;;;
2020/09/19 04:57:36;;;;;;;4.65;3.85;;;;;;;6.98;72.01953;95438.16;;;;
2020/09/19 04:58:37;;;;;;;4.65;3.85;;;;;;;6.98;72.01953;95438.16;;;;
2020/09/19 04:59:37;;;;;;;4.65;3.85;;;;;;;6.98;72.01953;95438.16;;;;
2020/09/19 05:00:43;;;;;;;4.65;3.85;;;;;;;6.98;72.01953;95438.16;;;;
2020/09/19 05:01:44;;;;;;;4.65;3.85;;;;;;;6.98;72.01953;95438.16;;;;
2020/09/19 05:02:45;;;;;;;5.5;3.7;;;;;;;6.91;72.18848;95441.79;;;;
2020/09/19 05:03:46;;;;;;;5.5;3.7;;;;;;;6.91;72.18848;95441.79;;;;
2020/09/19 05:04:48;;;;;;;5.5;3.7;;;;;;;6.91;72.18848;95441.79;;;;
2020/09/19 05:05:48;;;;;;;5.5;3.7;;;;;;;6.91;72.18848;95441.79;;;;
2020/09/19 05:06:49;;;;;;;5.5;3.7;;;;;;;6.91;72.18848;95441.79;;;;
2020/09/19 05:07:49;;;;;;;5.5;3.7;;;;;;;6.91;72.18848;95441.79;;;;
2020/09/19 05:08:50;;;;;;;5.5;3.7;;;;;;;6.91;72.18848;95441.79;;;;
2020/09/19 05:09:50;;;;;;;5.5;3.7;;;;;;;6.91;72.18848;95441.79;;;;
2020/09/19 05:10:56;;;;;;;5.5;3.7;;;;;;;6.91;72.18848;95441.79;;;;
2020/09/19 05:11:57;;;;;;;5.5;3.7;;;;;;;6.91;72.18848;95441.79;;;;
2020/09/19 05:12:58;;;;;;;5.5;3.7;;;;;;;6.91;72.18848;95441.79;;;;
2020/09/19 05:13:58;;;;;;;9.650002;4.2;;;;;;;6.9;72.4209;95450.48;;;;
2020/09/19 05:14:59;;;;;;;9.650002;4.2;;;;;;;6.9;72.4209;95450.48;;;;
2020/09/19 05:15:59;;;;;;;9.650002;4.2;;;;;;;6.9;72.4209;95450.48;;;;
2020/09/19 05:17:12;;;;;;;9.650002;4.2;;;;;;;6.9;72.4209;95450.48;;;;
2020/09/19 05:18:16;;;;;;;9.650002;4.2;;;;;;;6.9;72.4209;95450.48;;;;
2020/09/19 05:19:34;;;;;;;9.650002;4.2;;;;;;;6.9;72.4209;95450.48;;;;
2020/09/19 05:20:35;;;;;;;9.650002;4.2;;;;;;;6.9;72.4209;95450.48;;;;
2020/09/19 05:21:36;;;;;;;9.650002;4.2;;;;;;;6.9;72.4209;95450.48;;;;
2020/09/19 05:22:36;;;;;;;9.650002;4.2;;;;;;;6.9;72.4209;95450.48;;;;
2020/09/19 05:23:37;;;;;;;9.650002;4.2;;;;;;;6.9;72.4209;95450.48;;;;
2020/09/19 05:24:38;;;;;;;6.45;3.8;;;;;;;6.97;72.5166;95445.92;;;;
2020/09/19 05:25:39;;;;;;;6.45;3.8;;;;;;;6.97;72.5166;95445.92;;;;
2020/09/19 05:26:41;;;;;;;6.45;3.8;;;;;;;6.97;72.5166;95445.92;;;;
2020/09/19 05:27:41;;;;;;;6.45;3.8;;;;;;;6.97;72.5166;95445.92;;;;
2020/09/19 05:28:42;;;;;;;6.45;3.8;;;;;;;6.97;72.5166;95445.92;;;;
2020/09/19 05:29:42;;;;;;;6.45;3.8;;;;;;;6.97;72.5166;95445.92;;;;
2020/09/19 05:30:51;;;;;;;6.45;3.8;;;;;;;6.97;72.5166;95445.92;;;;
2020/09/19 05:31:51;;;;;;;6.45;3.8;;;;;;;6.97;72.5166;95445.92;;;;
2020/09/19 05:32:52;;;;;;;6.45;3.8;;;;;;;6.97;72.5166;95445.92;;;;
2020/09/19 05:33:52;;;;;;;6.45;3.8;;;;;;;6.97;72.5166;95445.92;;;;
2020/09/19 05:34:53;;;;;;;7.2;3.8;;;;;;;7.14;72.5127;95454.35;;;;
2020/09/19 05:35:56;;;;;;;7.2;3.8;;;;;;;7.14;72.5127;95454.35;;;;
2020/09/19 05:37:00;;;;;;;7.2;3.8;;;;;;;7.14;72.5127;95454.35;;;;
2020/09/19 05:38:00;;;;;;;7.2;3.8;;;;;;;7.14;72.5127;95454.35;;;;
2020/09/19 05:39:01;;;;;;;7.2;3.8;;;;;;;7.14;72.5127;95454.35;;;;
2020/09/19 05:40:01;;;;;;;7.2;3.8;;;;;;;7.14;72.5127;95454.35;;;;
2020/09/19 05:41:09;;;;;;;7.2;3.8;;;;;;;7.14;72.5127;95454.35;;;;
2020/09/19 05:42:11;;;;;;;7.2;3.8;;;;;;;7.14;72.5127;95454.35;;;;
2020/09/19 05:43:13;;;;;;;7.2;3.8;;;;;;;7.14;72.5127;95454.35;;;;
2020/09/19 05:44:13;;;;;;;7.2;3.8;;;;;;;7.14;72.5127;95454.35;;;;
2020/09/19 05:45:20;;;;;;;4.95;3.9;;;;;;;7.37;72.47656;95454.69;;;;
2020/09/19 05:46:22;;;;;;;4.95;3.9;;;;;;;7.37;72.47656;95454.69;;;;
2020/09/19 05:47:22;;;;;;;4.95;3.9;;;;;;;7.37;72.47656;95454.69;;;;
2020/09/19 05:48:24;;;;;;;4.95;3.9;;;;;;;7.37;72.47656;95454.69;;;;
2020/09/19 05:49:24;;;;;;;4.95;3.9;;;;;;;7.37;72.47656;95454.69;;;;
2020/09/19 05:50:25;;;;;;;4.95;3.9;;;;;;;7.37;72.47656;95454.69;;;;
2020/09/19 05:51:26;;;;;;;4.95;3.9;;;;;;;7.37;72.47656;95454.69;;;;
2020/09/19 05:52:27;;;;;;;4.95;3.9;;;;;;;7.37;72.47656;95454.69;;;;
2020/09/19 05:53:37;;;;;;;4.95;3.9;;;;;;;7.37;72.47656;95454.69;;;;
2020/09/19 05:54:38;;;;;;;4.95;3.9;;;;;;;7.37;72.47656;95454.69;;;;
2020/09/19 05:55:39;;;;;;;4.95;3.9;;;;;;;7.37;72.47656;95454.69;;;;
2020/09/19 05:56:40;;;;;;;4.8;3.75;;;;;;;7.68;72.34961;95439.04;;;;
2020/09/19 05:57:40;;;;;;;4.8;3.75;;;;;;;7.68;72.34961;95439.04;;;;
2020/09/19 05:58:43;;;;;;;4.8;3.75;;;;;;;7.68;72.34961;95439.04;;;;
2020/09/19 05:59:43;;;;;;;4.8;3.75;;;;;;;7.68;72.34961;95439.04;;;;
2020/09/19 06:00:49;;;;;;;4.8;3.75;;;;;;;7.68;72.34961;95439.04;;;;
2020/09/19 06:01:49;;;;;;;4.8;3.75;;;;;;;7.68;72.34961;95439.04;;;;
2020/09/19 06:02:53;;;;;;;4.8;3.75;;;;;;;7.68;72.34961;95439.04;;;;
2020/09/19 06:03:54;;;;;;;4.8;3.75;;;;;;;7.68;72.34961;95439.04;;;;